createdAt,value
2023-03-22T00:01:28.766Z,109.77
2023-03-22T00:03:57.000Z,110.13
2023-03-22T00:06:25.635Z,110.80
2023-03-22T00:08:55.130Z,107.57
2023-03-22T00:11:25.971Z,107.90
2023-03-22T00:13:55.016Z,105.57
2023-03-22T00:16:23.593Z,107.83
2023-03-22T00:18:51.830Z,109.27
2023-03-22T00:21:20.027Z,108.00
2023-03-22T00:23:48.169Z,111.10
2023-03-22T00:26:16.446Z,107.67
2023-03-22T00:28:46.677Z,112.73
2023-03-22T00:31:15.984Z,112.07
2023-03-22T00:33:44.168Z,113.07
2023-03-22T00:36:13.886Z,111.97
2023-03-22T00:38:43.968Z,111.77
2023-03-22T00:41:14.083Z,110.80
2023-03-22T00:43:42.541Z,112.83
2023-03-22T00:46:13.518Z,113.90
2023-03-22T00:48:42.035Z,112.37
2023-03-22T00:51:12.775Z,115.63
2023-03-22T00:53:43.522Z,114.23
2023-03-22T00:56:15.890Z,112.47
2023-03-22T00:58:57.060Z,115.87
2023-03-22T01:01:26.922Z,114.10
2023-03-22T01:03:56.017Z,114.57
2023-03-22T01:06:24.132Z,112.50
2023-03-22T01:08:55.257Z,116.43
2023-03-22T01:11:23.497Z,115.37
2023-03-22T01:13:57.663Z,113.57
2023-03-22T01:16:27.760Z,113.80
2023-03-22T01:18:55.897Z,118.77
2023-03-22T01:21:24.032Z,119.93
2023-03-22T01:23:52.146Z,118.63
2023-03-22T01:26:20.287Z,118.57
2023-03-22T01:28:48.359Z,122.30
2023-03-22T01:31:16.513Z,119.80
2023-03-22T01:33:46.125Z,125.00
2023-03-22T01:36:14.244Z,123.27
2023-03-22T01:38:42.371Z,126.67
2023-03-22T01:41:10.553Z,124.53
2023-03-22T01:43:41.901Z,125.97
2023-03-22T01:46:10.321Z,128.00
2023-03-22T01:48:46.271Z,129.47
2023-03-22T01:51:19.241Z,124.20
2023-03-22T01:54:25.722Z,128.60
2023-03-22T01:56:54.175Z,131.03
2023-03-22T01:59:32.676Z,131.03
2023-03-22T02:02:19.244Z,129.60
2023-03-22T02:04:58.193Z,127.33
2023-03-22T02:07:31.918Z,126.30
2023-03-22T02:10:02.474Z,132.67
2023-03-22T02:12:53.596Z,133.67
2023-03-22T02:15:42.876Z,137.57
2023-03-22T02:18:44.958Z,136.97
2023-03-22T02:21:46.020Z,133.60
2023-03-22T02:24:48.301Z,246.33
2023-03-22T02:27:48.065Z,128.10
2023-03-22T02:30:45.912Z,128.80
2023-03-22T02:33:41.559Z,131.30
2023-03-22T02:36:31.016Z,134.10
2023-03-22T02:39:15.558Z,135.87
2023-03-22T02:42:05.000Z,135.50
2023-03-22T02:44:42.246Z,134.57
2023-03-22T02:47:22.433Z,133.60
2023-03-22T02:49:57.500Z,136.17
2023-03-22T02:52:31.900Z,129.60
2023-03-22T02:55:08.985Z,136.77
2023-03-22T02:57:42.006Z,140.60
2023-03-22T03:00:14.240Z,138.07
2023-03-22T03:02:45.430Z,136.60
2023-03-22T03:05:16.234Z,700.93
2023-03-22T03:07:47.802Z,121.47
2023-03-22T03:10:19.728Z,156.27
2023-03-22T03:12:48.050Z,121.13
2023-03-22T03:15:18.635Z,135.80
2023-03-22T03:17:58.685Z,130.70
2023-03-22T03:20:39.007Z,152.53
2023-03-22T03:23:17.787Z,131.97
2023-03-22T03:25:59.070Z,135.53
2023-03-22T03:28:38.470Z,136.03
2023-03-22T03:31:19.797Z,141.27
2023-03-22T03:33:56.288Z,589.07
2023-03-22T03:36:27.420Z,121.47
2023-03-22T03:38:58.010Z,398.10
2023-03-22T03:41:31.334Z,492.53
2023-03-22T03:44:00.654Z,594.73
2023-03-22T03:46:29.529Z,639.57
2023-03-22T03:48:59.366Z,739.73
2023-03-22T03:51:28.761Z,221.03
2023-03-22T03:53:56.867Z,338.57
2023-03-22T03:56:25.184Z,662.03
2023-03-22T03:58:55.769Z,504.60
2023-03-22T04:01:24.251Z,265.13
2023-03-22T04:04:15.342Z,615.40
2023-03-22T04:06:56.838Z,245.63
2023-03-22T04:09:27.512Z,282.53
2023-03-22T04:12:00.823Z,533.80
2023-03-22T04:14:30.473Z,484.87
2023-03-22T04:17:02.596Z,975.60
2023-03-22T04:19:32.623Z,868.17
2023-03-22T04:22:01.183Z,936.87
2023-03-22T04:24:29.446Z,214.93
2023-03-22T04:26:57.572Z,715.87
2023-03-22T04:29:32.360Z,176.67
2023-03-22T04:32:16.622Z,388.37
2023-03-22T04:34:44.934Z,159.10
2023-03-22T04:37:15.657Z,1090.10
2023-03-22T04:39:50.617Z,339.13
2023-03-22T04:42:32.437Z,139.40
2023-03-22T04:45:29.318Z,302.20
2023-03-22T04:48:01.874Z,157.23
2023-03-22T04:50:32.365Z,176.50
2023-03-22T04:53:04.085Z,293.57
2023-03-22T04:55:34.224Z,122.87
2023-03-22T04:58:03.421Z,182.87
2023-03-22T05:00:32.914Z,162.17
2023-03-22T05:03:04.172Z,203.50
2023-03-22T05:05:41.352Z,181.20
2023-03-22T05:08:09.725Z,167.63
2023-03-22T05:10:41.414Z,217.50
2023-03-22T05:13:10.055Z,215.90
2023-03-22T05:15:44.418Z,218.00
2023-03-22T05:18:15.547Z,162.57
2023-03-22T05:20:45.666Z,109.40
2023-03-22T05:23:19.502Z,219.47
2023-03-22T05:25:52.333Z,332.83
2023-03-22T05:28:22.513Z,489.77
2023-03-22T05:31:15.584Z,327.17
2023-03-22T05:33:50.531Z,483.00
2023-03-22T05:36:23.001Z,112.50
2023-03-22T05:39:10.879Z,109.27
2023-03-22T05:41:39.161Z,738.90
2023-03-22T05:44:07.529Z,109.80
2023-03-22T05:46:39.791Z,105.47
2023-03-22T05:49:31.148Z,156.67
2023-03-22T05:51:59.359Z,213.90
2023-03-22T05:54:38.435Z,113.27
2023-03-22T05:57:07.427Z,527.40
2023-03-22T05:59:35.517Z,136.30
2023-03-22T06:02:05.711Z,101.87
2023-03-22T06:04:33.793Z,444.87
2023-03-22T06:07:06.435Z,93.03
2023-03-22T06:09:54.523Z,91.50
2023-03-22T06:12:27.223Z,254.33
2023-03-22T06:15:13.041Z,104.97
2023-03-22T06:17:58.822Z,84.70
2023-03-22T06:20:29.699Z,80.70
2023-03-22T06:23:03.416Z,81.30
2023-03-22T06:25:31.624Z,203.77
2023-03-22T06:28:00.664Z,78.43
2023-03-22T06:30:30.496Z,73.27
2023-03-22T06:33:14.727Z,75.30
2023-03-22T06:35:46.351Z,81.60
2023-03-22T06:38:20.841Z,71.73
2023-03-22T06:40:49.085Z,80.60
2023-03-22T06:43:17.300Z,70.83
2023-03-22T06:45:48.806Z,71.63
2023-03-22T06:48:23.733Z,71.70
2023-03-22T06:51:06.503Z,75.17
2023-03-22T06:53:36.512Z,76.77
2023-03-22T06:56:06.083Z,99.53
2023-03-22T06:58:45.049Z,72.10
2023-03-22T07:01:13.136Z,73.90
2023-03-22T07:03:42.817Z,70.37
2023-03-22T07:06:14.912Z,71.93
2023-03-22T07:08:46.952Z,71.07
2023-03-22T07:11:19.060Z,69.87
2023-03-22T07:13:51.809Z,69.37
2023-03-22T07:16:22.920Z,78.80
2023-03-22T07:18:56.013Z,80.20
2023-03-22T07:21:24.692Z,82.43
2023-03-22T07:23:58.289Z,78.47
2023-03-22T07:26:30.632Z,80.37
2023-03-22T07:29:00.107Z,77.13
2023-03-22T07:31:31.687Z,79.77
2023-03-22T07:34:06.948Z,76.23
2023-03-22T07:36:58.061Z,78.53
2023-03-22T07:39:28.974Z,70.30
2023-03-22T07:41:57.550Z,65.90
2023-03-22T07:44:25.629Z,64.33
2023-03-22T07:47:12.758Z,65.53
2023-03-22T07:49:49.658Z,65.87
2023-03-22T07:52:21.875Z,78.60
2023-03-22T07:54:50.269Z,71.77
2023-03-22T07:57:18.814Z,74.07
2023-03-22T07:59:53.075Z,66.97
2023-03-22T08:02:21.440Z,68.07
2023-03-22T08:04:56.507Z,62.17
2023-03-22T08:07:42.410Z,65.60
2023-03-22T08:10:12.820Z,64.57
2023-03-22T08:12:41.379Z,61.97
2023-03-22T08:15:16.687Z,61.80
2023-03-22T08:17:45.477Z,61.50
2023-03-22T08:20:21.197Z,65.33
2023-03-22T08:22:55.553Z,64.97
2023-03-22T08:25:49.719Z,65.60
2023-03-22T08:28:17.895Z,72.43
2023-03-22T08:30:48.183Z,77.23
2023-03-22T08:33:17.149Z,69.97
2023-03-22T08:35:48.107Z,69.50
2023-03-22T08:38:16.257Z,70.07
2023-03-22T08:40:48.715Z,69.40
2023-03-22T08:43:20.764Z,65.47
2023-03-22T08:45:49.026Z,60.40
2023-03-22T08:48:20.842Z,52.50
2023-03-22T08:51:06.578Z,48.63
2023-03-22T08:53:49.740Z,46.93
2023-03-22T08:56:41.892Z,45.87
2023-03-22T08:59:20.504Z,43.47
2023-03-22T09:01:59.055Z,38.73
2023-03-22T09:04:27.442Z,36.47
2023-03-22T09:06:57.614Z,37.90
2023-03-22T09:09:25.744Z,36.93
2023-03-22T09:11:56.312Z,33.90
2023-03-22T09:14:24.802Z,30.50
2023-03-22T09:16:54.459Z,32.45
2023-03-22T09:19:22.707Z,28.27
2023-03-22T09:21:51.089Z,31.02
2023-03-22T09:24:31.536Z,26.98
2023-03-22T09:27:03.432Z,25.88
2023-03-22T09:29:31.931Z,24.88
2023-03-22T09:32:03.477Z,24.20
2023-03-22T09:34:35.004Z,27.73
2023-03-22T09:37:04.941Z,26.17
2023-03-22T09:39:44.838Z,21.85
2023-03-22T09:42:25.878Z,23.80
2023-03-22T09:44:56.157Z,29.35
2023-03-22T09:47:44.164Z,22.25
2023-03-22T09:50:16.512Z,23.10
2023-03-22T09:52:45.160Z,29.77
2023-03-22T09:55:20.744Z,33.58
2023-03-22T09:57:56.283Z,23.48
2023-03-22T10:00:34.599Z,21.15
2023-03-22T10:03:14.007Z,21.17
2023-03-22T10:05:48.289Z,22.35
2023-03-22T10:08:31.171Z,15.63
2023-03-22T10:11:01.540Z,11.90
2023-03-22T10:13:37.750Z,13.75
2023-03-22T10:16:11.772Z,14.77
2023-03-22T10:18:43.827Z,14.75
2023-03-22T10:21:14.484Z,13.95
2023-03-22T10:23:45.890Z,16.10
2023-03-22T10:26:23.980Z,15.55
2023-03-22T10:29:03.506Z,13.68
2023-03-22T10:31:32.859Z,13.77
2023-03-22T10:34:08.366Z,15.07
2023-03-22T10:36:42.476Z,15.23
2023-03-22T10:39:17.304Z,14.93
2023-03-22T10:41:48.633Z,13.25
2023-03-22T10:44:20.534Z,13.70
2023-03-22T10:46:52.054Z,13.82
2023-03-22T10:49:26.180Z,14.75
2023-03-22T10:51:59.910Z,15.25
2023-03-22T10:54:28.161Z,14.75
2023-03-22T10:56:57.637Z,18.42
2023-03-22T10:59:48.392Z,14.77
2023-03-22T11:02:22.251Z,15.52
2023-03-22T11:04:52.646Z,15.25
2023-03-22T11:07:39.423Z,13.23
2023-03-22T11:10:21.856Z,10.35
2023-03-22T11:12:54.418Z,9.68
2023-03-22T11:15:29.948Z,9.65
2023-03-22T11:18:06.557Z,10.77
2023-03-22T11:20:36.542Z,9.75
2023-03-22T11:23:07.027Z,9.07
2023-03-22T11:25:37.668Z,10.70
2023-03-22T11:28:16.637Z,9.77
2023-03-22T11:31:00.462Z,10.15
2023-03-22T11:33:28.858Z,9.48
2023-03-22T11:35:58.227Z,10.40
2023-03-22T11:38:30.622Z,11.40
2023-03-22T11:41:02.687Z,10.38
2023-03-22T11:43:37.005Z,13.32
2023-03-22T11:46:06.394Z,12.57
2023-03-22T11:48:36.702Z,11.25
2023-03-22T11:51:09.771Z,11.45
2023-03-22T11:53:40.931Z,14.82
2023-03-22T11:56:12.086Z,12.05
2023-03-22T11:58:56.387Z,11.45
2023-03-22T12:01:34.532Z,11.10
2023-03-22T12:04:06.440Z,10.93
2023-03-22T12:06:39.226Z,10.57
2023-03-22T12:09:22.898Z,10.88
2023-03-22T12:11:54.313Z,11.57
2023-03-22T12:14:29.273Z,11.85
2023-03-22T12:16:59.748Z,12.10
2023-03-22T12:19:43.546Z,12.40
2023-03-22T12:22:14.393Z,11.48
2023-03-22T12:24:43.273Z,11.32
2023-03-22T12:27:18.680Z,10.07
2023-03-22T12:29:54.803Z,12.00
2023-03-22T12:32:27.667Z,11.02
2023-03-22T12:35:16.044Z,11.27
2023-03-22T12:37:49.697Z,10.75
2023-03-22T12:40:24.451Z,9.73
2023-03-22T12:43:02.294Z,9.68
2023-03-22T12:45:37.165Z,10.10
2023-03-22T12:48:11.440Z,8.95
2023-03-22T12:50:44.479Z,9.45
2023-03-22T12:53:16.475Z,10.25
2023-03-22T12:55:46.241Z,10.20
2023-03-22T12:58:18.178Z,10.20
2023-03-22T13:00:51.004Z,9.38
2023-03-22T13:03:28.975Z,10.20
2023-03-22T13:06:07.717Z,10.85
2023-03-22T13:09:13.215Z,10.13
2023-03-22T13:11:41.338Z,9.20
2023-03-22T13:14:12.986Z,9.68
2023-03-22T13:16:52.596Z,8.38
2023-03-22T13:19:38.037Z,8.80
2023-03-22T13:22:21.130Z,8.50
2023-03-22T13:25:29.717Z,8.93
2023-03-22T13:28:00.091Z,8.05
2023-03-22T13:30:33.357Z,8.10
2023-03-22T13:33:14.321Z,8.02
2023-03-22T13:35:46.580Z,7.20
2023-03-22T13:38:22.308Z,7.75
2023-03-22T13:41:00.789Z,6.43
2023-03-22T13:43:32.757Z,7.03
2023-03-22T13:46:29.435Z,7.03
2023-03-22T13:49:26.534Z,6.32
2023-03-22T13:51:56.916Z,5.60
2023-03-22T13:54:28.732Z,5.50
2023-03-22T13:57:00.909Z,5.80
2023-03-22T13:59:33.890Z,7.20
2023-03-22T14:02:05.921Z,6.63
2023-03-22T14:04:42.686Z,6.28
2023-03-22T14:07:24.198Z,7.40
2023-03-22T14:09:55.768Z,6.88
2023-03-22T14:12:29.742Z,6.22
2023-03-22T14:15:02.601Z,6.53
2023-03-22T14:17:36.276Z,6.38
2023-03-22T14:20:10.701Z,6.50
